sensor_id;sensor_type;location;lat;lon;timestamp;P1;durP1;ratioP1;P2;durP2;ratioP2
46507;SDS011;32223;53.654;10.014;2024-02-21T00:02:05;32.83;;;14.65;;
46507;SDS011;32223;53.654;10.014;2024-02-21T00:04:30;42.95;;;15.52;;
46507;SDS011;32223;53.654;10.014;2024-02-21T00:06:56;39.70;;;16.27;;
46507;SDS011;32223;53.654;10.014;2024-02-21T00:09:22;33.13;;;15.43;;
46507;SDS011;32223;53.654;10.014;2024-02-21T00:11:47;33.35;;;15.82;;
46507;SDS011;32223;53.654;10.014;2024-02-21T00:14:13;40.92;;;16.15;;
46507;SDS011;32223;53.654;10.014;2024-02-21T00:16:38;40.97;;;16.10;;
46507;SDS011;32223;53.654;10.014;2024-02-21T00:19:04;34.40;;;14.73;;
46507;SDS011;32223;53.654;10.014;2024-02-21T00:21:30;39.55;;;16.42;;
46507;SDS011;32223;53.654;10.014;2024-02-21T00:23:55;31.50;;;15.70;;
46507;SDS011;32223;53.654;10.014;2024-02-21T00:26:21;36.60;;;14.68;;
46507;SDS011;32223;53.654;10.014;2024-02-21T00:28:46;42.40;;;16.27;;
46507;SDS011;32223;53.654;10.014;2024-02-21T00:31:12;37.80;;;17.55;;
46507;SDS011;32223;53.654;10.014;2024-02-21T00:33:38;33.15;;;17.13;;
46507;SDS011;32223;53.654;10.014;2024-02-21T00:36:03;40.88;;;17.02;;
46507;SDS011;32223;53.654;10.014;2024-02-21T00:38:29;36.85;;;17.13;;
46507;SDS011;32223;53.654;10.014;2024-02-21T00:40:55;35.72;;;18.02;;
46507;SDS011;32223;53.654;10.014;2024-02-21T00:43:20;34.60;;;17.40;;
46507;SDS011;32223;53.654;10.014;2024-02-21T00:45:48;38.30;;;18.20;;
46507;SDS011;32223;53.654;10.014;2024-02-21T00:48:14;41.28;;;17.15;;
46507;SDS011;32223;53.654;10.014;2024-02-21T00:50:40;38.67;;;18.80;;
46507;SDS011;32223;53.654;10.014;2024-02-21T00:53:05;39.40;;;18.10;;
46507;SDS011;32223;53.654;10.014;2024-02-21T00:55:31;34.22;;;19.05;;
46507;SDS011;32223;53.654;10.014;2024-02-21T00:57:57;45.25;;;18.08;;
46507;SDS011;32223;53.654;10.014;2024-02-21T01:00:22;32.25;;;17.90;;
46507;SDS011;32223;53.654;10.014;2024-02-21T01:02:48;41.80;;;18.15;;
46507;SDS011;32223;53.654;10.014;2024-02-21T01:05:13;43.70;;;18.90;;
46507;SDS011;32223;53.654;10.014;2024-02-21T01:07:39;41.78;;;18.23;;
46507;SDS011;32223;53.654;10.014;2024-02-21T01:10:05;34.08;;;16.70;;
46507;SDS011;32223;53.654;10.014;2024-02-21T01:12:31;46.47;;;19.13;;
46507;SDS011;32223;53.654;10.014;2024-02-21T01:14:57;38.03;;;19.42;;
46507;SDS011;32223;53.654;10.014;2024-02-21T01:17:22;30.63;;;15.73;;
46507;SDS011;32223;53.654;10.014;2024-02-21T01:19:48;33.15;;;16.33;;
46507;SDS011;32223;53.654;10.014;2024-02-21T01:22:14;42.30;;;18.60;;
46507;SDS011;32223;53.654;10.014;2024-02-21T01:24:40;32.47;;;17.73;;
46507;SDS011;32223;53.654;10.014;2024-02-21T01:27:06;34.80;;;17.40;;
46507;SDS011;32223;53.654;10.014;2024-02-21T01:29:32;38.55;;;17.73;;
46507;SDS011;32223;53.654;10.014;2024-02-21T01:31:58;34.75;;;16.73;;
46507;SDS011;32223;53.654;10.014;2024-02-21T01:34:23;32.92;;;15.48;;
46507;SDS011;32223;53.654;10.014;2024-02-21T01:36:49;38.25;;;16.80;;
46507;SDS011;32223;53.654;10.014;2024-02-21T01:39:14;32.05;;;16.17;;
46507;SDS011;32223;53.654;10.014;2024-02-21T01:41:40;36.97;;;17.42;;
46507;SDS011;32223;53.654;10.014;2024-02-21T01:44:06;35.88;;;18.17;;
46507;SDS011;32223;53.654;10.014;2024-02-21T01:46:32;27.95;;;16.08;;
46507;SDS011;32223;53.654;10.014;2024-02-21T01:48:57;39.28;;;17.83;;
46507;SDS011;32223;53.654;10.014;2024-02-21T01:51:24;37.95;;;17.52;;
46507;SDS011;32223;53.654;10.014;2024-02-21T01:53:50;37.05;;;16.52;;
46507;SDS011;32223;53.654;10.014;2024-02-21T01:56:17;40.83;;;17.45;;
46507;SDS011;32223;53.654;10.014;2024-02-21T01:58:42;35.72;;;15.90;;
46507;SDS011;32223;53.654;10.014;2024-02-21T02:01:09;31.75;;;16.85;;
46507;SDS011;32223;53.654;10.014;2024-02-21T02:03:35;28.70;;;14.20;;
46507;SDS011;32223;53.654;10.014;2024-02-21T02:06:02;34.30;;;15.10;;
46507;SDS011;32223;53.654;10.014;2024-02-21T02:08:29;34.83;;;15.05;;
46507;SDS011;32223;53.654;10.014;2024-02-21T02:10:56;36.17;;;17.77;;
46507;SDS011;32223;53.654;10.014;2024-02-21T02:13:22;35.15;;;16.65;;
46507;SDS011;32223;53.654;10.014;2024-02-21T02:15:48;41.15;;;16.75;;
46507;SDS011;32223;53.654;10.014;2024-02-21T02:18:14;39.30;;;18.10;;
46507;SDS011;32223;53.654;10.014;2024-02-21T02:20:41;34.60;;;18.70;;
46507;SDS011;32223;53.654;10.014;2024-02-21T02:23:07;31.23;;;16.65;;
46507;SDS011;32223;53.654;10.014;2024-02-21T02:25:38;41.28;;;17.25;;
46507;SDS011;32223;53.654;10.014;2024-02-21T02:28:05;36.47;;;17.75;;
46507;SDS011;32223;53.654;10.014;2024-02-21T02:30:32;41.72;;;19.20;;
46507;SDS011;32223;53.654;10.014;2024-02-21T02:32:59;46.15;;;17.85;;
46507;SDS011;32223;53.654;10.014;2024-02-21T02:35:24;38.22;;;18.23;;
46507;SDS011;32223;53.654;10.014;2024-02-21T02:37:50;39.63;;;19.95;;
46507;SDS011;32223;53.654;10.014;2024-02-21T02:40:16;39.05;;;19.17;;
46507;SDS011;32223;53.654;10.014;2024-02-21T02:42:43;36.15;;;19.33;;
46507;SDS011;32223;53.654;10.014;2024-02-21T02:45:09;39.55;;;20.58;;
46507;SDS011;32223;53.654;10.014;2024-02-21T02:47:35;46.20;;;20.30;;
46507;SDS011;32223;53.654;10.014;2024-02-21T02:50:00;49.45;;;21.23;;
46507;SDS011;32223;53.654;10.014;2024-02-21T02:52:26;41.45;;;21.20;;
46507;SDS011;32223;53.654;10.014;2024-02-21T02:54:52;47.05;;;20.70;;
46507;SDS011;32223;53.654;10.014;2024-02-21T02:57:20;42.47;;;21.10;;
46507;SDS011;32223;53.654;10.014;2024-02-21T02:59:49;45.38;;;21.25;;
46507;SDS011;32223;53.654;10.014;2024-02-21T03:02:15;52.25;;;22.13;;
46507;SDS011;32223;53.654;10.014;2024-02-21T03:04:42;42.63;;;20.90;;
46507;SDS011;32223;53.654;10.014;2024-02-21T03:07:08;45.17;;;21.65;;
46507;SDS011;32223;53.654;10.014;2024-02-21T03:09:33;44.20;;;22.20;;
46507;SDS011;32223;53.654;10.014;2024-02-21T03:11:59;40.13;;;21.48;;
46507;SDS011;32223;53.654;10.014;2024-02-21T03:14:30;39.70;;;21.27;;
46507;SDS011;32223;53.654;10.014;2024-02-21T03:16:57;45.20;;;23.13;;
46507;SDS011;32223;53.654;10.014;2024-02-21T03:19:23;48.55;;;22.60;;
46507;SDS011;32223;53.654;10.014;2024-02-21T03:21:49;50.83;;;21.38;;
46507;SDS011;32223;53.654;10.014;2024-02-21T03:24:15;37.55;;;22.08;;
46507;SDS011;32223;53.654;10.014;2024-02-21T03:26:41;44.15;;;22.17;;
46507;SDS011;32223;53.654;10.014;2024-02-21T03:29:07;39.83;;;20.30;;
46507;SDS011;32223;53.654;10.014;2024-02-21T03:31:36;39.45;;;19.25;;
46507;SDS011;32223;53.654;10.014;2024-02-21T03:34:02;39.90;;;20.42;;
46507;SDS011;32223;53.654;10.014;2024-02-21T03:36:28;38.40;;;18.77;;
46507;SDS011;32223;53.654;10.014;2024-02-21T03:38:54;34.65;;;18.52;;
46507;SDS011;32223;53.654;10.014;2024-02-21T03:41:20;33.13;;;15.90;;
46507;SDS011;32223;53.654;10.014;2024-02-21T03:43:46;34.78;;;18.95;;
46507;SDS011;32223;53.654;10.014;2024-02-21T03:46:11;40.55;;;18.50;;
46507;SDS011;32223;53.654;10.014;2024-02-21T03:48:37;38.20;;;18.50;;
46507;SDS011;32223;53.654;10.014;2024-02-21T03:51:03;36.95;;;18.75;;
46507;SDS011;32223;53.654;10.014;2024-02-21T03:53:30;38.70;;;20.98;;
46507;SDS011;32223;53.654;10.014;2024-02-21T03:55:55;35.22;;;16.77;;
46507;SDS011;32223;53.654;10.014;2024-02-21T03:58:21;31.58;;;17.48;;
46507;SDS011;32223;53.654;10.014;2024-02-21T04:00:47;29.98;;;16.75;;
46507;SDS011;32223;53.654;10.014;2024-02-21T04:03:13;34.72;;;16.25;;
46507;SDS011;32223;53.654;10.014;2024-02-21T04:05:38;34.45;;;16.55;;
46507;SDS011;32223;53.654;10.014;2024-02-21T04:08:04;34.45;;;16.30;;
46507;SDS011;32223;53.654;10.014;2024-02-21T04:10:30;37.03;;;17.65;;
46507;SDS011;32223;53.654;10.014;2024-02-21T04:12:56;36.95;;;18.30;;
46507;SDS011;32223;53.654;10.014;2024-02-21T04:15:21;34.83;;;16.85;;
46507;SDS011;32223;53.654;10.014;2024-02-21T04:17:47;33.60;;;15.32;;
46507;SDS011;32223;53.654;10.014;2024-02-21T04:20:14;35.35;;;19.02;;
46507;SDS011;32223;53.654;10.014;2024-02-21T04:22:40;36.75;;;18.42;;
46507;SDS011;32223;53.654;10.014;2024-02-21T04:25:07;27.42;;;16.35;;
46507;SDS011;32223;53.654;10.014;2024-02-21T04:27:33;30.58;;;16.88;;
46507;SDS011;32223;53.654;10.014;2024-02-21T04:29:59;29.52;;;14.80;;
46507;SDS011;32223;53.654;10.014;2024-02-21T04:32:24;44.10;;;17.65;;
46507;SDS011;32223;53.654;10.014;2024-02-21T04:34:52;35.22;;;17.30;;
46507;SDS011;32223;53.654;10.014;2024-02-21T04:37:18;29.92;;;15.38;;
46507;SDS011;32223;53.654;10.014;2024-02-21T04:39:43;36.33;;;17.40;;
46507;SDS011;32223;53.654;10.014;2024-02-21T04:42:09;38.58;;;16.63;;
46507;SDS011;32223;53.654;10.014;2024-02-21T04:44:35;31.25;;;17.17;;
46507;SDS011;32223;53.654;10.014;2024-02-21T04:47:01;36.10;;;17.40;;
46507;SDS011;32223;53.654;10.014;2024-02-21T04:49:28;36.72;;;19.48;;
46507;SDS011;32223;53.654;10.014;2024-02-21T04:51:55;31.95;;;17.50;;
46507;SDS011;32223;53.654;10.014;2024-02-21T04:54:21;34.88;;;17.42;;
46507;SDS011;32223;53.654;10.014;2024-02-21T04:56:46;27.95;;;14.75;;
46507;SDS011;32223;53.654;10.014;2024-02-21T04:59:12;27.35;;;15.77;;
46507;SDS011;32223;53.654;10.014;2024-02-21T05:01:37;29.75;;;16.00;;
46507;SDS011;32223;53.654;10.014;2024-02-21T05:04:03;29.48;;;16.13;;
46507;SDS011;32223;53.654;10.014;2024-02-21T05:06:29;34.22;;;15.93;;
46507;SDS011;32223;53.654;10.014;2024-02-21T05:08:54;27.73;;;14.73;;
46507;SDS011;32223;53.654;10.014;2024-02-21T05:11:23;28.60;;;15.15;;
46507;SDS011;32223;53.654;10.014;2024-02-21T05:13:49;23.33;;;14.30;;
46507;SDS011;32223;53.654;10.014;2024-02-21T05:16:15;26.17;;;14.15;;
46507;SDS011;32223;53.654;10.014;2024-02-21T05:18:41;19.90;;;12.52;;
46507;SDS011;32223;53.654;10.014;2024-02-21T05:21:07;22.92;;;13.23;;
46507;SDS011;32223;53.654;10.014;2024-02-21T05:23:33;25.77;;;13.52;;
46507;SDS011;32223;53.654;10.014;2024-02-21T05:25:59;22.60;;;12.52;;
46507;SDS011;32223;53.654;10.014;2024-02-21T05:28:24;23.85;;;13.63;;
46507;SDS011;32223;53.654;10.014;2024-02-21T05:30:50;21.45;;;11.85;;
46507;SDS011;32223;53.654;10.014;2024-02-21T05:33:15;22.63;;;11.60;;
46507;SDS011;32223;53.654;10.014;2024-02-21T05:35:46;21.88;;;11.07;;
46507;SDS011;32223;53.654;10.014;2024-02-21T05:38:13;22.27;;;11.07;;
46507;SDS011;32223;53.654;10.014;2024-02-21T05:40:39;17.52;;;10.35;;
46507;SDS011;32223;53.654;10.014;2024-02-21T05:43:05;16.85;;;10.55;;
46507;SDS011;32223;53.654;10.014;2024-02-21T05:45:30;19.70;;;9.82;;
46507;SDS011;32223;53.654;10.014;2024-02-21T05:47:56;22.20;;;10.65;;
46507;SDS011;32223;53.654;10.014;2024-02-21T05:50:24;16.02;;;9.00;;
46507;SDS011;32223;53.654;10.014;2024-02-21T05:52:51;15.48;;;8.98;;
46507;SDS011;32223;53.654;10.014;2024-02-21T05:55:17;18.45;;;8.43;;
46507;SDS011;32223;53.654;10.014;2024-02-21T05:57:43;18.55;;;9.10;;
46507;SDS011;32223;53.654;10.014;2024-02-21T06:00:09;12.93;;;8.20;;
46507;SDS011;32223;53.654;10.014;2024-02-21T06:02:34;14.05;;;7.97;;
46507;SDS011;32223;53.654;10.014;2024-02-21T06:05:00;17.85;;;9.25;;
46507;SDS011;32223;53.654;10.014;2024-02-21T06:07:26;14.38;;;8.10;;
46507;SDS011;32223;53.654;10.014;2024-02-21T06:09:51;11.95;;;7.18;;
46507;SDS011;32223;53.654;10.014;2024-02-21T06:12:17;11.38;;;6.35;;
46507;SDS011;32223;53.654;10.014;2024-02-21T06:14:42;10.68;;;7.57;;
46507;SDS011;32223;53.654;10.014;2024-02-21T06:17:08;10.35;;;6.40;;
46507;SDS011;32223;53.654;10.014;2024-02-21T06:19:33;13.68;;;6.72;;
46507;SDS011;32223;53.654;10.014;2024-02-21T06:21:59;10.85;;;6.55;;
46507;SDS011;32223;53.654;10.014;2024-02-21T06:24:24;11.18;;;5.85;;
46507;SDS011;32223;53.654;10.014;2024-02-21T06:26:50;12.20;;;5.90;;
46507;SDS011;32223;53.654;10.014;2024-02-21T06:29:16;10.55;;;5.35;;
46507;SDS011;32223;53.654;10.014;2024-02-21T06:31:41;7.22;;;3.95;;
46507;SDS011;32223;53.654;10.014;2024-02-21T06:34:07;6.43;;;3.55;;
46507;SDS011;32223;53.654;10.014;2024-02-21T06:36:32;5.88;;;3.80;;
46507;SDS011;32223;53.654;10.014;2024-02-21T06:38:58;9.55;;;3.83;;
46507;SDS011;32223;53.654;10.014;2024-02-21T06:41:24;6.55;;;3.70;;
46507;SDS011;32223;53.654;10.014;2024-02-21T06:43:50;6.60;;;3.17;;
46507;SDS011;32223;53.654;10.014;2024-02-21T06:46:49;6.30;;;2.95;;
46507;SDS011;32223;53.654;10.014;2024-02-21T06:49:08;7.57;;;2.85;;
46507;SDS011;32223;53.654;10.014;2024-02-21T06:51:33;5.88;;;3.08;;
46507;SDS011;32223;53.654;10.014;2024-02-21T06:53:59;5.15;;;2.75;;
46507;SDS011;32223;53.654;10.014;2024-02-21T06:56:25;4.47;;;2.35;;
46507;SDS011;32223;53.654;10.014;2024-02-21T06:58:53;5.72;;;2.72;;
46507;SDS011;32223;53.654;10.014;2024-02-21T07:01:23;5.05;;;2.63;;
46507;SDS011;32223;53.654;10.014;2024-02-21T07:03:49;5.15;;;2.17;;
46507;SDS011;32223;53.654;10.014;2024-02-21T07:06:15;5.25;;;2.10;;
46507;SDS011;32223;53.654;10.014;2024-02-21T07:08:40;7.25;;;2.70;;
46507;SDS011;32223;53.654;10.014;2024-02-21T07:11:06;4.13;;;3.25;;
46507;SDS011;32223;53.654;10.014;2024-02-21T07:13:32;5.55;;;2.75;;
46507;SDS011;32223;53.654;10.014;2024-02-21T07:15:57;4.55;;;2.47;;
46507;SDS011;32223;53.654;10.014;2024-02-21T07:18:23;5.32;;;2.83;;
46507;SDS011;32223;53.654;10.014;2024-02-21T07:20:50;5.05;;;2.30;;
46507;SDS011;32223;53.654;10.014;2024-02-21T07:23:16;4.70;;;2.67;;
46507;SDS011;32223;53.654;10.014;2024-02-21T07:25:42;4.45;;;2.60;;
46507;SDS011;32223;53.654;10.014;2024-02-21T07:28:08;4.10;;;2.42;;
46507;SDS011;32223;53.654;10.014;2024-02-21T07:30:33;5.10;;;2.65;;
46507;SDS011;32223;53.654;10.014;2024-02-21T07:32:59;5.03;;;3.38;;
46507;SDS011;32223;53.654;10.014;2024-02-21T07:35:25;4.07;;;2.72;;
46507;SDS011;32223;53.654;10.014;2024-02-21T07:37:50;6.13;;;2.80;;
46507;SDS011;32223;53.654;10.014;2024-02-21T07:40:16;7.63;;;2.85;;
46507;SDS011;32223;53.654;10.014;2024-02-21T07:42:42;6.55;;;3.38;;
46507;SDS011;32223;53.654;10.014;2024-02-21T07:45:08;6.50;;;2.60;;
46507;SDS011;32223;53.654;10.014;2024-02-21T07:47:35;7.65;;;3.10;;
46507;SDS011;32223;53.654;10.014;2024-02-21T07:50:01;9.93;;;3.88;;
46507;SDS011;32223;53.654;10.014;2024-02-21T07:52:27;10.40;;;3.75;;
46507;SDS011;32223;53.654;10.014;2024-02-21T07:54:53;9.57;;;3.40;;
46507;SDS011;32223;53.654;10.014;2024-02-21T07:57:19;10.57;;;4.57;;
46507;SDS011;32223;53.654;10.014;2024-02-21T07:59:46;11.95;;;3.75;;
46507;SDS011;32223;53.654;10.014;2024-02-21T08:02:15;12.40;;;3.67;;
46507;SDS011;32223;53.654;10.014;2024-02-21T08:04:41;11.80;;;3.85;;
46507;SDS011;32223;53.654;10.014;2024-02-21T08:07:06;12.90;;;3.90;;
46507;SDS011;32223;53.654;10.014;2024-02-21T08:09:32;13.88;;;3.95;;
46507;SDS011;32223;53.654;10.014;2024-02-21T08:11:58;14.70;;;3.33;;
46507;SDS011;32223;53.654;10.014;2024-02-21T08:14:24;12.88;;;3.72;;
46507;SDS011;32223;53.654;10.014;2024-02-21T08:16:50;13.98;;;5.00;;
46507;SDS011;32223;53.654;10.014;2024-02-21T08:19:18;15.75;;;4.15;;
46507;SDS011;32223;53.654;10.014;2024-02-21T08:21:44;12.27;;;4.13;;
46507;SDS011;32223;53.654;10.014;2024-02-21T08:24:12;19.83;;;5.45;;
46507;SDS011;32223;53.654;10.014;2024-02-21T08:26:43;18.83;;;4.65;;
46507;SDS011;32223;53.654;10.014;2024-02-21T08:29:12;9.85;;;3.20;;
46507;SDS011;32223;53.654;10.014;2024-02-21T08:31:38;16.73;;;4.05;;
46507;SDS011;32223;53.654;10.014;2024-02-21T08:34:03;15.43;;;3.80;;
46507;SDS011;32223;53.654;10.014;2024-02-21T08:36:30;14.35;;;3.88;;
46507;SDS011;32223;53.654;10.014;2024-02-21T08:38:57;12.27;;;3.08;;
46507;SDS011;32223;53.654;10.014;2024-02-21T08:41:23;13.25;;;3.25;;
46507;SDS011;32223;53.654;10.014;2024-02-21T08:43:53;16.13;;;3.78;;
46507;SDS011;32223;53.654;10.014;2024-02-21T08:46:28;16.85;;;3.92;;
46507;SDS011;32223;53.654;10.014;2024-02-21T08:48:54;12.45;;;3.15;;
46507;SDS011;32223;53.654;10.014;2024-02-21T08:51:19;14.68;;;3.88;;
46507;SDS011;32223;53.654;10.014;2024-02-21T08:53:46;15.48;;;3.75;;
46507;SDS011;32223;53.654;10.014;2024-02-21T08:56:13;14.43;;;3.10;;
46507;SDS011;32223;53.654;10.014;2024-02-21T08:58:39;12.93;;;2.83;;
46507;SDS011;32223;53.654;10.014;2024-02-21T09:01:05;19.30;;;3.42;;
46507;SDS011;32223;53.654;10.014;2024-02-21T09:03:38;16.75;;;3.78;;
46507;SDS011;32223;53.654;10.014;2024-02-21T09:06:07;13.38;;;4.18;;
46507;SDS011;32223;53.654;10.014;2024-02-21T09:08:33;20.45;;;3.58;;
46507;SDS011;32223;53.654;10.014;2024-02-21T09:11:02;13.02;;;3.95;;
46507;SDS011;32223;53.654;10.014;2024-02-21T09:13:28;13.65;;;3.90;;
46507;SDS011;32223;53.654;10.014;2024-02-21T09:15:55;14.18;;;3.17;;
46507;SDS011;32223;53.654;10.014;2024-02-21T09:18:20;12.80;;;3.13;;
46507;SDS011;32223;53.654;10.014;2024-02-21T09:20:46;9.82;;;3.55;;
46507;SDS011;32223;53.654;10.014;2024-02-21T09:23:12;9.15;;;3.90;;
46507;SDS011;32223;53.654;10.014;2024-02-21T09:25:38;18.35;;;3.88;;
46507;SDS011;32223;53.654;10.014;2024-02-21T09:28:05;14.52;;;3.28;;
46507;SDS011;32223;53.654;10.014;2024-02-21T09:30:31;8.88;;;3.30;;
46507;SDS011;32223;53.654;10.014;2024-02-21T09:32:57;14.77;;;4.32;;
46507;SDS011;32223;53.654;10.014;2024-02-21T09:35:24;10.90;;;3.15;;
46507;SDS011;32223;53.654;10.014;2024-02-21T09:37:51;17.83;;;4.35;;
46507;SDS011;32223;53.654;10.014;2024-02-21T09:40:17;14.68;;;3.50;;
46507;SDS011;32223;53.654;10.014;2024-02-21T09:42:43;12.82;;;3.92;;
46507;SDS011;32223;53.654;10.014;2024-02-21T09:45:20;11.55;;;3.00;;
46507;SDS011;32223;53.654;10.014;2024-02-21T09:50:38;16.90;;;3.55;;
46507;SDS011;32223;53.654;10.014;2024-02-21T09:53:09;13.20;;;3.78;;
46507;SDS011;32223;53.654;10.014;2024-02-21T09:55:37;10.15;;;3.08;;
46507;SDS011;32223;53.654;10.014;2024-02-21T09:58:05;11.73;;;2.95;;
46507;SDS011;32223;53.654;10.014;2024-02-21T10:00:31;12.45;;;3.10;;
46507;SDS011;32223;53.654;10.014;2024-02-21T10:02:56;12.93;;;3.25;;
46507;SDS011;32223;53.654;10.014;2024-02-21T10:05:23;11.82;;;3.05;;
46507;SDS011;32223;53.654;10.014;2024-02-21T10:07:51;8.25;;;2.42;;
46507;SDS011;32223;53.654;10.014;2024-02-21T10:10:17;6.45;;;2.65;;
46507;SDS011;32223;53.654;10.014;2024-02-21T10:12:52;9.38;;;2.88;;
46507;SDS011;32223;53.654;10.014;2024-02-21T10:15:23;11.50;;;2.47;;
46507;SDS011;32223;53.654;10.014;2024-02-21T10:17:59;8.52;;;2.75;;
46507;SDS011;32223;53.654;10.014;2024-02-21T10:20:26;7.50;;;3.83;;
46507;SDS011;32223;53.654;10.014;2024-02-21T10:23:05;5.72;;;2.42;;
46507;SDS011;32223;53.654;10.014;2024-02-21T10:25:34;9.80;;;2.22;;
46507;SDS011;32223;53.654;10.014;2024-02-21T10:28:00;7.05;;;2.90;;
46507;SDS011;32223;53.654;10.014;2024-02-21T10:30:28;9.30;;;3.25;;
46507;SDS011;32223;53.654;10.014;2024-02-21T10:32:54;10.95;;;3.58;;
46507;SDS011;32223;53.654;10.014;2024-02-21T10:35:29;8.88;;;3.45;;
46507;SDS011;32223;53.654;10.014;2024-02-21T10:37:58;10.57;;;3.20;;
46507;SDS011;32223;53.654;10.014;2024-02-21T10:40:28;5.80;;;3.28;;
46507;SDS011;32223;53.654;10.014;2024-02-21T10:42:59;9.15;;;3.72;;
46507;SDS011;32223;53.654;10.014;2024-02-21T10:45:35;8.43;;;4.88;;
46507;SDS011;32223;53.654;10.014;2024-02-21T10:48:06;9.80;;;5.60;;
46507;SDS011;32223;53.654;10.014;2024-02-21T10:50:32;9.30;;;5.82;;
46507;SDS011;32223;53.654;10.014;2024-02-21T10:53:18;15.13;;;8.27;;
46507;SDS011;32223;53.654;10.014;2024-02-21T10:55:55;12.32;;;7.30;;
46507;SDS011;32223;53.654;10.014;2024-02-21T10:58:26;16.92;;;8.95;;
46507;SDS011;32223;53.654;10.014;2024-02-21T11:00:55;15.63;;;8.32;;
46507;SDS011;32223;53.654;10.014;2024-02-21T11:03:21;17.48;;;8.77;;
46507;SDS011;32223;53.654;10.014;2024-02-21T11:05:47;14.63;;;9.52;;
46507;SDS011;32223;53.654;10.014;2024-02-21T11:08:13;18.13;;;11.43;;
46507;SDS011;32223;53.654;10.014;2024-02-21T11:10:45;18.92;;;12.30;;
46507;SDS011;32223;53.654;10.014;2024-02-21T11:13:11;21.58;;;13.32;;
46507;SDS011;32223;53.654;10.014;2024-02-21T11:15:36;23.05;;;13.50;;
46507;SDS011;32223;53.654;10.014;2024-02-21T11:18:02;29.52;;;13.60;;
46507;SDS011;32223;53.654;10.014;2024-02-21T11:20:37;27.55;;;15.55;;
46507;SDS011;32223;53.654;10.014;2024-02-21T11:23:03;31.50;;;14.48;;
46507;SDS011;32223;53.654;10.014;2024-02-21T11:25:30;31.40;;;14.77;;
46507;SDS011;32223;53.654;10.014;2024-02-21T11:28:01;25.73;;;15.18;;
46507;SDS011;32223;53.654;10.014;2024-02-21T11:30:29;31.50;;;16.10;;
46507;SDS011;32223;53.654;10.014;2024-02-21T11:33:00;30.88;;;16.75;;
46507;SDS011;32223;53.654;10.014;2024-02-21T11:35:30;33.00;;;16.10;;
46507;SDS011;32223;53.654;10.014;2024-02-21T11:38:09;26.65;;;15.10;;
46507;SDS011;32223;53.654;10.014;2024-02-21T11:40:38;24.58;;;14.45;;
46507;SDS011;32223;53.654;10.014;2024-02-21T11:43:05;26.08;;;14.80;;
46507;SDS011;32223;53.654;10.014;2024-02-21T11:45:31;28.80;;;15.23;;
46507;SDS011;32223;53.654;10.014;2024-02-21T11:47:57;25.38;;;12.98;;
46507;SDS011;32223;53.654;10.014;2024-02-21T11:50:25;29.88;;;14.48;;
46507;SDS011;32223;53.654;10.014;2024-02-21T11:52:54;24.85;;;13.20;;
46507;SDS011;32223;53.654;10.014;2024-02-21T11:55:20;23.60;;;11.32;;
46507;SDS011;32223;53.654;10.014;2024-02-21T11:57:50;24.73;;;14.13;;
46507;SDS011;32223;53.654;10.014;2024-02-21T12:00:16;22.65;;;12.55;;
46507;SDS011;32223;53.654;10.014;2024-02-21T12:02:45;26.17;;;12.35;;
46507;SDS011;32223;53.654;10.014;2024-02-21T12:05:11;20.25;;;11.90;;
46507;SDS011;32223;53.654;10.014;2024-02-21T12:07:41;22.85;;;10.25;;
46507;SDS011;32223;53.654;10.014;2024-02-21T12:10:08;21.75;;;10.63;;
46507;SDS011;32223;53.654;10.014;2024-02-21T12:12:37;20.42;;;10.02;;
46507;SDS011;32223;53.654;10.014;2024-02-21T12:15:04;20.17;;;9.88;;
46507;SDS011;32223;53.654;10.014;2024-02-21T12:17:32;16.88;;;9.00;;
46507;SDS011;32223;53.654;10.014;2024-02-21T12:20:02;17.33;;;8.93;;
46507;SDS011;32223;53.654;10.014;2024-02-21T12:22:34;18.10;;;10.57;;
46507;SDS011;32223;53.654;10.014;2024-02-21T12:25:15;18.10;;;9.20;;
46507;SDS011;32223;53.654;10.014;2024-02-21T12:27:43;19.80;;;10.48;;
46507;SDS011;32223;53.654;10.014;2024-02-21T12:30:08;17.25;;;9.32;;
46507;SDS011;32223;53.654;10.014;2024-02-21T12:32:35;19.33;;;9.23;;
46507;SDS011;32223;53.654;10.014;2024-02-21T12:35:01;16.88;;;9.68;;
46507;SDS011;32223;53.654;10.014;2024-02-21T12:37:27;18.40;;;9.43;;
46507;SDS011;32223;53.654;10.014;2024-02-21T12:39:53;17.13;;;9.15;;
46507;SDS011;32223;53.654;10.014;2024-02-21T12:42:19;19.98;;;10.30;;
46507;SDS011;32223;53.654;10.014;2024-02-21T12:44:45;19.50;;;9.68;;
46507;SDS011;32223;53.654;10.014;2024-02-21T12:47:10;24.05;;;9.55;;
46507;SDS011;32223;53.654;10.014;2024-02-21T12:49:36;22.38;;;9.07;;
46507;SDS011;32223;53.654;10.014;2024-02-21T12:52:02;18.10;;;9.15;;
46507;SDS011;32223;53.654;10.014;2024-02-21T12:54:28;20.30;;;10.60;;
46507;SDS011;32223;53.654;10.014;2024-02-21T12:56:55;19.65;;;10.05;;
46507;SDS011;32223;53.654;10.014;2024-02-21T12:59:21;18.75;;;9.23;;
46507;SDS011;32223;53.654;10.014;2024-02-21T13:01:47;17.05;;;9.57;;
46507;SDS011;32223;53.654;10.014;2024-02-21T13:04:12;20.83;;;10.90;;
46507;SDS011;32223;53.654;10.014;2024-02-21T13:06:38;21.52;;;10.52;;
46507;SDS011;32223;53.654;10.014;2024-02-21T13:09:04;16.98;;;10.02;;
46507;SDS011;32223;53.654;10.014;2024-02-21T13:11:33;16.77;;;9.52;;
46507;SDS011;32223;53.654;10.014;2024-02-21T13:13:59;21.27;;;10.15;;
46507;SDS011;32223;53.654;10.014;2024-02-21T13:16:25;17.77;;;10.13;;
46507;SDS011;32223;53.654;10.014;2024-02-21T13:18:51;20.55;;;10.60;;
46507;SDS011;32223;53.654;10.014;2024-02-21T13:21:17;18.15;;;10.43;;
46507;SDS011;32223;53.654;10.014;2024-02-21T13:23:42;25.80;;;10.15;;
46507;SDS011;32223;53.654;10.014;2024-02-21T13:26:09;22.80;;;10.98;;
46507;SDS011;32223;53.654;10.014;2024-02-21T13:28:36;20.80;;;11.95;;
46507;SDS011;32223;53.654;10.014;2024-02-21T13:31:02;19.75;;;11.23;;
46507;SDS011;32223;53.654;10.014;2024-02-21T13:33:28;17.17;;;10.13;;
46507;SDS011;32223;53.654;10.014;2024-02-21T13:35:54;18.27;;;11.07;;
46507;SDS011;32223;53.654;10.014;2024-02-21T13:38:19;25.48;;;11.52;;
46507;SDS011;32223;53.654;10.014;2024-02-21T13:40:45;17.48;;;10.25;;
46507;SDS011;32223;53.654;10.014;2024-02-21T13:43:11;22.45;;;11.32;;
46507;SDS011;32223;53.654;10.014;2024-02-21T13:45:38;24.13;;;10.73;;
46507;SDS011;32223;53.654;10.014;2024-02-21T13:48:04;17.90;;;10.05;;
46507;SDS011;32223;53.654;10.014;2024-02-21T13:50:31;19.45;;;10.20;;
46507;SDS011;32223;53.654;10.014;2024-02-21T13:52:57;20.25;;;9.77;;
46507;SDS011;32223;53.654;10.014;2024-02-21T13:55:23;26.33;;;10.90;;
46507;SDS011;32223;53.654;10.014;2024-02-21T13:57:51;18.63;;;10.15;;
46507;SDS011;32223;53.654;10.014;2024-02-21T14:00:17;24.02;;;9.82;;
46507;SDS011;32223;53.654;10.014;2024-02-21T14:02:46;21.60;;;10.90;;
46507;SDS011;32223;53.654;10.014;2024-02-21T14:05:12;20.95;;;10.30;;
46507;SDS011;32223;53.654;10.014;2024-02-21T14:07:39;22.90;;;10.55;;
46507;SDS011;32223;53.654;10.014;2024-02-21T14:10:05;19.10;;;9.45;;
46507;SDS011;32223;53.654;10.014;2024-02-21T14:12:31;18.55;;;9.02;;
46507;SDS011;32223;53.654;10.014;2024-02-21T14:14:57;18.13;;;9.60;;
46507;SDS011;32223;53.654;10.014;2024-02-21T14:17:23;22.77;;;10.70;;